Tiempo atmosférico en la estación meteorológica de Ciudad Real, Ciudad Real (628 m.)



Fecha
DESCASC
Temp. máxima en grados centígrados (hora)
DESCASC
Temp. mínima en grados centígrados (hora)
DESCASC
Temp. media en grados centígrados
DESCASC
Racha de viento máxima en m/sg (hora)
DESCASC
Velocidad máxima media en intervalos de 10 minutos(hora)
DESCASC
Precipitaciones diarias en mm
DESCASC
Precipitaciones de 00:00 a 06:00 en mm
DESCASC
Precipitaciones de 06:00 a 12:00 en mm
DESCASC
Precipitaciones de 12:00 a 18:00 en mm
DESCASC
Precipitaciones de 18:00 a 24:00 en mm
DESCASC
19-01-2020 10.2 (00:00) 2 (23:20) 6.1 15.83 (16:10) 7.22 (20:00) 4.6 0 0 3 1.6
18-01-2020 11.2 (21:40) 5.6 (04:50) 8.4 11.67 (23:20) 5.83 (23:30) 4.6 0 3.8 0.4 0.4
17-01-2020 14.5 (14:30) 6.6 (02:10) 10.5 7.22 (11:40) 3.33 (14:10) 0 0 0 0 0
16-01-2020 17 (14:50) 4.4 (00:00) 10.7 6.67 (16:20) 3.61 (16:20) 0 0 0 0 0
15-01-2020 14.7 (14:50) 0.2 (00:00) 7.4 8.06 (14:30) 3.33 (14:30) 0 0 0 0 0
14-01-2020 11.4 (14:40) -2.4 (-00:0) 4.5 5.56 (15:00) 3.06 (14:00) 0 0 0 0 0
13-01-2020 12.3 (15:10) -2.7 (-00:0) 4.8 7.22 (15:30) 3.33 (15:40) 0 0 0 0 0
12-01-2020 12.8 (14:50) -2.7 (-00:0) 5.1 3.06 (15:20) 1.67 (15:20) 0 0 0 0 0
11-01-2020 10.7 (15:20) -1.2 (-00:0) 4.7 4.72 (14:40) 2.78 (15:40) 0 0 0 0 0
10-01-2020 11.2 (14:40) 4.5 (00:00) 7.8 10.28 (12:10) 5.28 (14:40) 0 0 0 0 0
09-01-2020 11.9 (17:00) 1 (00:00) 6.4 4.17 (20:00) 2.5 (21:20) 0 0 0 0 0
08-01-2020 14.5 (15:00) -1.5 (-00:0) 6.5 3.61 (14:20) 2.22 (14:20) 0 0 0 0 0
07-01-2020 13.3 (16:20) -2.2 (-00:0) 5.6 2.22 (13:10) 1.39 (06:40) 0 0 0 0 0
06-01-2020 12.9 (15:20) -1.9 (-00:0) 5.5 2.78 (11:20) 1.67 (21:20) 0 0 0 0 0
05-01-2020 10.4 (15:00) -3 (-00:0) 3.7 3.89 (15:20) 2.5 (16:30) 0 0 0 0 0
04-01-2020 7.8 (15:30) 0.9 (00:00) 4.4 6.67 (04:20) 3.61 (04:40) 0 0 0 0 0
03-01-2020 9.2 (16:00) -1.2 (-00:0) 4 3.33 (15:10) 1.39 (14:40) 0 0 0 0 0
02-01-2020 9.2 (16:20) -1.9 (-00:0) 3.6 -- (--) -- (--) 0 0 0 0 0
01-01-2020 5.2 (17:00) 0.5 (00:00) 2.8 2.78 (04:40) 1.67 (04:30) 0 0 0 0 0
31-12-2019 4.5 (15:50) 0.3 (00:00) 2.4 3.89 (12:10) 2.22 (13:20) 0 0 0 0 0
30-12-2019 6.3 (16:30) -1.4 (-00:0) 2.5 5.28 (14:40) 3.06 (14:50) 0 0 0 0 0
29-12-2019 8.6 (14:10) -0.6 (-00:0) 4 5 (14:40) 3.33 (16:10) 0 0 0 0 0
28-12-2019 14 (15:50) 0.9 (00:00) 7.4 4.17 (16:50) 2.5 (16:50) 0 0 0 0 0
27-12-2019 13.2 (14:40) 2.7 (00:00) 7.9 5 (12:20) 3.06 (12:00) 0 0 0 0 0
26-12-2019 14.7 (15:00) 2.5 (00:00) 8.6 4.44 (16:40) 3.06 (17:00) 0 0 0 0 0
25-12-2019 14.6 (16:10) 3 (00:00) 8.8 2.22 (18:10) 1.39 (18:10) 0 0 0 0 0
24-12-2019 16.1 (15:20) 3.1 (00:00) 9.6 3.89 (16:30) 2.5 (17:00) 0 0 0 0 0

Gráficas

Temp. máximas Temp. mínimas Temp. medias Precipitaciones Rachas de viento máximas Velocidades máximas media en intervalos de 10 minutos

Datos horarios

Fecha y hora oficial Temperatura (ºC) Velocidad del viento (km/h) Dirección del viento Racha (km/h) Dirección de racha Precipitación (mm) Presión (hPa) Tendencia (hPa) Humedad (%)
2020-01-22 23:00:00 5.7 5 Este 10 Nordeste 0 943.7 0.8 92
2020-01-22 22:00:00 6.6 6 Este 13 Este 0 943.5 1 90
2020-01-22 21:00:00 6.9 7 Este 12 Norte 0 943.1 0.7 89
2020-01-22 20:00:00 7.4 4 Nordeste 13 Norte 0 942.9 1 87
2020-01-22 19:00:00 8 5 Nordeste 30 Sur 2.4 942.5 0.5 86
2020-01-22 18:00:00 9.8 10 Sudeste 22 Sudeste 0 942.4 -0.1 72
2020-01-22 17:00:00 10.9 8 Este 21 Nordeste 0 941.9 -1.2 62
2020-01-22 16:00:00 11.9 7 Nordeste 20 Este 0 942 -1.9 59
2020-01-22 15:00:00 12.2 11 Este 21 Este 0 942.5 -1.9 54
2020-01-22 14:00:00 12 10 Este 26 Nordeste 0 943.1 -1.3 61
2020-01-22 13:00:00 10.1 17 Este 29 Este 0 943.9 -0.1 71
2020-01-22 12:00:00 7.6 11 Este 22 Este 0 944.4 0.8 83
2020-01-22 11:00:00 5.8 12 Este 18 Este 0 944.4 1.5 89
2020-01-22 10:00:00 4.6 8 Este 15 Nordeste 0 944 1.6 95
2020-01-22 09:00:00 3.8 7 Nordeste 14 Este 0 943.6 1.3 96
2020-01-22 08:00:00 3.4 10 Este 17 Este 0 942.9 0.5 98
2020-01-22 07:00:00 3.2 7 Este 17 Este 0 942.4 -0.3 98
2020-01-22 06:00:00 3.6 7 Este 18 Nordeste 0 942.3 -0.3 98
2020-01-22 05:00:00 3.6 10 Este 22 Nordeste 0 942.4 -0.2 97
2020-01-22 04:00:00 3.6 12 Este 23 Este 0 942.7 0.2 97
2020-01-22 03:00:00 3.5 12 Nordeste 23 Este 0 942.6 0 96
2020-01-22 02:00:00 3.1 10 Este 19 Este 0 942.6 0.3 96
2020-01-22 01:00:00 3.3 10 Este 24 Este 0 942.5 0.4 93
2020-01-22 00:00:00 4.1 13 Este 30 Este 0 942.6 0.8 91
2020-01-21 23:00:00 4.2 17 Este 32 Nordeste 0 942.3 0.6 91
2020-01-21 22:00:00 4.1 13 Nordeste 23 Este 0 942.1 1 92
2020-01-21 21:00:00 4.4 8 Nordeste 25 Norte 0 941.8 1 93
2020-01-21 20:00:00 4.5 10 Este 22 Nordeste 0 941.7 1.4 92
2020-01-21 19:00:00 5 13 Este 35 Nordeste 0 941.1 1.1 90
2020-01-21 18:00:00 5.6 22 Nordeste 45 Nordeste 0 940.8 0.8 84
2020-01-21 17:00:00 6.7 19 Nordeste 41 Nordeste 0 940.3 -0.7 82
2020-01-21 16:00:00 6.2 16 Nordeste 45 Este 0 940 -1.6 85
2020-01-21 15:00:00 7.2 21 Nordeste 48 Nordeste 0 940 -2.5 77
2020-01-21 14:00:00 6.2 20 Nordeste 42 Nordeste 0 941 -1.5 78
2020-01-21 13:00:00 6.7 18 Nordeste 48 Nordeste 0 941.6 -1.4 74
2020-01-21 12:00:00 5 16 Nordeste 37 Nordeste 0 942.5 -0.7 80
2020-01-21 11:00:00 3.8 15 Nordeste 34 Nordeste 0 942.5 -0.4 85
2020-01-21 10:00:00 3 15 Norte 33 Nordeste 1.2 943 0.2 90
2020-01-21 09:00:00 3.5 14 Nordeste 36 Nordeste 0.2 943.2 -0.1 81
2020-01-21 08:00:00 3.5 12 Nordeste 33 Nordeste 0 942.9 -0.9 76
2020-01-21 07:00:00 3.5 16 Nordeste 36 Nordeste 0 942.8 -1.4 74
2020-01-21 06:00:00 3.6 12 Norte 26 Norte 0 943.3 -1.1 74
2020-01-21 05:00:00 4.1 8 Nordeste 28 Norte 0 943.8 -1.3 76
2020-01-21 04:00:00 4 13 Nordeste 30 Nordeste 0 944.2 -1.5 74
2020-01-21 03:00:00 4.1 14 Nordeste 41 Norte 0 944.4 -1.7 73
2020-01-21 02:00:00 4 15 Nordeste 34 Nordeste 0 945.1 -0.9 72
2020-01-21 01:00:00 3.8 15 Nordeste 29 Nordeste 0 945.7 0 74
2020-01-21 00:00:00 4.1 9 Nordeste 30 Nordeste 0 946.1 0.6 74
2020-01-20 23:00:00 4.1 14 Nordeste 37 Nordeste 0 946 0.6 76
2020-01-20 22:00:00 4.7 18 Nordeste 44 Nordeste 0 945.7 0.8 75
2020-01-20 21:00:00 4.1 11 Nordeste 31 Nordeste 0.4 945.5 0.9 83
2020-01-20 20:00:00 4.8 13 Nordeste 31 Nordeste 0 945.4 0.8 71
2020-01-20 19:00:00 5 15 Nordeste 31 Este 0 944.9 0.2 72
2020-01-20 18:00:00 5 12 Nordeste 27 Nordeste 0 944.6 0.1 70
2020-01-20 17:00:00 5 11 Nordeste 31 Nordeste 0 944.6 -0.8 74
2020-01-20 16:00:00 5 12 Nordeste 36 Nordeste 0 944.7 -1.5 69
2020-01-20 15:00:00 4.9 18 Nordeste 34 Nordeste 0 944.5 -2.2 65
2020-01-20 14:00:00 4.1 13 Nordeste 36 Nordeste 0 945.4 -1.1 65
2020-01-20 13:00:00 3.4 15 Norte 38 Norte 0 946.2 0.1 60
2020-01-20 12:00:00 2.2 17 Nordeste 42 Nordeste 0 946.7 0.6 69
2020-01-20 11:00:00 1.5 19 Norte 45 Norte 0 946.5 0 72
2020-01-20 10:00:00 1.9 15 Nordeste 42 Norte 0 946.1 -0.3 61
2020-01-20 09:00:00 1.6 18 Norte 42 Norte 0 946.1 -0.6 68
2020-01-20 08:00:00 2 16 Nordeste 44 Nordeste 0 946.5 -0.2 59
2020-01-20 07:00:00 2.1 16 Nordeste 46 Norte 0 946.4 -0.7 59
2020-01-20 06:00:00 2.4 19 Norte 41 Norte 0 946.7 -0.5 59
2020-01-20 05:00:00 2.8 18 Norte 41 Nordeste 0 946.7 -1 55
2020-01-20 04:00:00 2.7 18 Norte 36 Norte 0 947.1 -0.8 56
2020-01-20 03:00:00 2.9 19 Nordeste 45 Nordeste 0 947.2 -1.1 56
2020-01-20 02:00:00 2.9 17 Nordeste 46 Nordeste 0 947.7 -0.6 58
2020-01-20 01:00:00 3.1 18 Norte 49 Nordeste 0 947.9 -0.5 60
2020-01-20 00:00:00 2.4 13 Norte 37 Norte 0 948.3 0.4 72
2020-01-19 23:00:00 2.2 15 Norte 40 Norte 0 948.3 0.7 81
2020-01-19 22:00:00 2.6 20 Nordeste 45 Nordeste 0 948.4 1.2 85
2020-01-19 21:00:00 3.3 23 Nordeste 46 Nordeste 0 947.9 1.2 90
2020-01-19 20:00:00 4.5 26 Este 52 Nordeste 0.2 947.6 1.4 80
2020-01-19 19:00:00 3.8 19 Nordeste 43 Nordeste 1.4 947.2 1.8 89
2020-01-19 18:00:00 4.1 19 Norte 44 Norte 1.6 946.7 1.4 90
2020-01-19 17:00:00 5 18 Nordeste 57 Nordeste 1.2 946.2 0.3 83
2020-01-19 16:00:00 8.1 18 Nordeste 50 Nordeste 0 945.4 -1 64
2020-01-19 15:00:00 7.7 16 Norte 51 Norte 0 945.3 -1.5 61
2020-01-19 14:00:00 7.2 15 Norte 41 Nordeste 0 945.9 -0.6 72
2020-01-19 13:00:00 6.8 9 Norte 30 Norte 0.2 946.4 0.3 79
2020-01-19 12:00:00 6.9 10 Norte 27 Noroeste 0 946.8 1.1 79
2020-01-19 11:00:00 7.1 9 Noroeste 24 Noroeste 0 946.5 0.8 78
2020-01-19 10:00:00 6.2 10 Noroeste 19 Noroeste 0 946.1 0.3 83
2020-01-19 09:00:00 5.3 4 Sudoeste 11 Sudoeste 0 945.7 -0.3 90
2020-01-19 08:00:00 5.5 4 Oeste 13 Oeste 0 945.7 -0.6 88
2020-01-19 07:00:00 6 5 Noroeste 19 Noroeste 0 945.8 -0.6 88
2020-01-19 06:00:00 6.7 10 Noroeste 15 Noroeste 0 946 -1.1 87
2020-01-19 05:00:00 6.8 5 Noroeste 13 Noroeste 0 946.3 -0.7 88
2020-01-19 04:00:00 6.8 4 Noroeste 18 Norte 0 946.4 -1.2 83
2020-01-19 03:00:00 7.9 9 Noroeste 21 Oeste 0 947.1 -0.2 89
2020-01-19 02:00:00 8.5 14 Oeste 29 Noroeste 0 947 -0.7 87
2020-01-19 01:00:00 9 17 Noroeste 37 Sudoeste 0 947.6 -0.7 86
2020-01-19 00:00:00 10.2 12 Oeste 42 Oeste 0.2 947.3 -1.4 88
2020-01-18 23:00:00 11.2 11 Oeste 30 Oeste 0 947.7 -1.7 89
2020-01-18 22:00:00 11.2 11 Sudoeste 28 Sudoeste 0 948.3 -1.8 94
2020-01-18 21:00:00 10.9 14 Sudoeste 27 Oeste 0 948.7 -1.7 95
2020-01-18 20:00:00 10.6 12 Sudoeste 24 Oeste 0 949.4 -1.4 96
2020-01-18 19:00:00 10.5 8 Oeste 24 Sudoeste 0.2 950.1 -1.5 97
2020-01-18 18:00:00 10.9 12 Sudoeste 30 Oeste 0 950.4 -2.1 93
2020-01-18 17:00:00 10.7 10 Sudoeste 22 Oeste 0 950.8 -2.8 93
2020-01-18 16:00:00 10.2 8 Sudoeste 20 Sudoeste 0.2 951.6 -3.3 95
2020-01-18 15:00:00 9.9 6 Sudoeste 16 Sur 0 952.5 -4 94
2020-01-18 14:00:00 9.8 7 Sur 21 Sur 0.2 953.6 -3.2 94
2020-01-18 13:00:00 10 8 Sur 18 Sur 0 954.9 -2 92
2020-01-18 12:00:00 9.2 4 Sur 10 Sur 0.2 956.5 -0.5 94
2020-01-18 11:00:00 7.6 6 Sudeste 15 Sur 0 956.8 -0.2 98
2020-01-18 10:00:00 6.7 3 Sur 11 Sudeste 0.4 956.9 0.1 99
2020-01-18 09:00:00 6 3 Este 7 Este 0.8 957 0.9 97
2020-01-18 08:00:00 5.9 5 Nordeste 9 Sudeste 2 957 0.9 96
2020-01-18 07:00:00 6 3 Este 6 Nordeste 0.4 956.8 0 93
2020-01-18 06:00:00 6.1 2 Sudoeste 7 Este 0 956.1 -1 91
2020-01-18 05:00:00 5.6 2 Sudoeste 5 Nordeste 0 956.1 -1.4 89
2020-01-18 04:00:00 6 0 Calma 5 Sudoeste 0 956.8 -1.1 89
2020-01-18 03:00:00 6 3 Este 5 Noroeste 0 957.1 -1.1 87
2020-01-18 02:00:00 6.2 2 Noroeste 5 Oeste 0 957.5 -1.1 86
2020-01-18 01:00:00 6.8 0 Calma 9 Sur 0 957.9 -0.7 85
2020-01-18 00:00:00 7.5 0 Calma 7 Sudoeste 0 958.2 -0.3 82
2020-01-17 23:00:00 7.8 3 Sur 8 Oeste 0 958.6 0.6 81
2020-01-17 22:00:00 8.3 4 Sudoeste 11 Oeste 0 958.6 0.6 79
2020-01-17 21:00:00 8.7 3 Oeste 9 Noroeste 0 958.5 1.1 77
2020-01-17 20:00:00 9.4 4 Noroeste 12 Noroeste 0 958 0.6 74
2020-01-17 19:00:00 10.5 8 Noroeste 14 Noroeste 0 958 0.9 69
2020-01-17 18:00:00 11.9 7 Oeste 19 Oeste 0 957.4 0.1 65
2020-01-17 17:00:00 13 8 Oeste 23 Sudoeste 0 957.4 -0.2 60
2020-01-17 16:00:00 13.5 8 Oeste 23 Sudoeste 0 957.1 -1 58
2020-01-17 15:00:00 13.8 12 Oeste 26 Oeste 0 957.3 -1.6 55
2020-01-17 14:00:00 14.3 11 Oeste 26 Oeste 0 957.6 -0.8 54
2020-01-17 13:00:00 13.3 10 Oeste 23 Oeste 0 958.1 0.3 60
2020-01-17 12:00:00 12.6 9 Oeste 26 Sudoeste 0 958.9 2 68
2020-01-17 11:00:00 11.2 8 Oeste 21 Oeste 0 958.4 1.8 75
2020-01-17 10:00:00 8.9 5 Oeste 11 Noroeste 0 957.8 1.9 76
2020-01-17 09:00:00 7.9 4 Sudoeste 7 Sudoeste 0 956.9 1.3 76
2020-01-17 08:00:00 8.4 3 Noroeste 11 Noroeste 0 956.6 1.6 73
2020-01-17 07:00:00 8.9 3 Noroeste 9 Oeste 0 955.9 0.7 69
2020-01-17 06:00:00 9.3 4 Oeste 13 Oeste 0 955.6 0.4 65
2020-01-17 05:00:00 9.4 8 Oeste 17 Oeste 0 955 0.1 62
2020-01-17 04:00:00 7.8 4 Sudoeste 9 Sur 0 955.2 0.1 61
2020-01-17 03:00:00 7.2 2 Este 8 Norte 0 955.2 0.1 66
2020-01-17 02:00:00 6.7 0 Calma 9 Sur 0 954.9 0.2 63
2020-01-17 01:00:00 7.5 2 Noroeste 11 Oeste 0 955.1 0.8 58
2020-01-17 00:00:00 8 5 Noroeste 10 Sudoeste 0 955.1 1.1 57
2020-01-16 23:00:00 8.9 6 Sudoeste 14 Sudoeste 0 954.7 1.3 55
2020-01-16 22:00:00 9.8 7 Sudoeste 17 Sudoeste 0 954.3 1.3 53
2020-01-16 21:00:00 10.7 6 Sudoeste 14 Sudoeste 0 954 1.3 51
2020-01-16 20:00:00 11.4 7 Sudoeste 19 Sudoeste 0 953.4 0.8 49
2020-01-16 19:00:00 12.5 8 Sudoeste 17 Sudoeste 0 953 0.3 45
2020-01-16 18:00:00 14.1 8 Sudoeste 22 Sudoeste 0 952.7 0.1 40
2020-01-16 17:00:00 15.4 11 Oeste 24 Sudoeste 0 952.6 -0.9 35
2020-01-16 16:00:00 16.3 11 Oeste 23 Sudoeste 0 952.7 -1.7 30
2020-01-16 15:00:00 16.9 10 Sudoeste 20 Oeste 0 952.6 -2.1 32
2020-01-16 14:00:00 16.3 7 Sudoeste 16 Noroeste 0 953.5 -1.5 42
2020-01-16 13:00:00 14.3 5 Sudoeste 11 Oeste 0 954.4 -0.4 55
2020-01-16 12:00:00 12.2 4 Sur 8 Sudeste 0 954.7 0.2 63
2020-01-16 11:00:00 9 5 Sur 8 Sur 0 955 0.8 76
2020-01-16 10:00:00 5.5 4 Sudeste 6 Sur 0 954.8 1.1 87
2020-01-16 09:00:00 4.4 3 Este 5 Este 0 954.5 0.7 88
2020-01-16 08:00:00 5.9 2 Oeste 14 Sudeste 0 954.2 0.1 84
2020-01-16 07:00:00 6.7 8 Sudeste 14 Sudeste 0 953.7 -0.5 81
2020-01-16 06:00:00 6.9 3 Sudeste 8 Sudeste 0 953.8 -0.4 81
2020-01-16 05:00:00 6.8 0 Calma 9 Sudeste 0 954.1 -0.1 83
2020-01-16 04:00:00 7.1 4 Sudeste 7 Sudeste 0 954.2 -0.3 84
2020-01-16 03:00:00 7.3 2 Este 4 Oeste 0 954.2 -0.3 86
2020-01-16 02:00:00 7.9 0 Calma 4 Norte 0 954.2 -0.2 84
2020-01-16 01:00:00 8.2 3 Noroeste 5 Norte 0 954.5 0.3 82
2020-01-16 00:00:00 8.3 4 Este 6 Este 0 954.5 0.5 83
2020-01-15 23:00:00 8.6 0 Calma 6 Sudeste 0 954.4 0.9 80
2020-01-15 22:00:00 9.5 0 Calma 5 Sur 0 954.2 0.8 77
2020-01-15 21:00:00 9.7 0 Calma 6 Nordeste 0 954 1 74
2020-01-15 20:00:00 10.7 0 Calma 10 Sudoeste 0 953.5 1 70
2020-01-15 19:00:00 11.6 3 Oeste 8 Sudoeste 0 953.4 1.2 66
2020-01-15 18:00:00 12.3 4 Oeste 15 Oeste 0 953 1 63
2020-01-15 17:00:00 13 6 Oeste 18 Oeste 0 952.5 0.3 59
2020-01-15 16:00:00 13.3 5 Oeste 18 Oeste 0 952.2 -0.7 60
2020-01-15 15:00:00 14.5 10 Oeste 29 Oeste 0 952 -1.3 54
2020-01-15 14:00:00 13.3 6 Oeste 13 Noroeste 0 952.2 -0.5 58
2020-01-15 13:00:00 10.4 5 Noroeste 10 Noroeste 0 952.9 1.1 66
2020-01-15 12:00:00 8 3 Noroeste 7 Nordeste 0 953.3 2 75
2020-01-15 11:00:00 4.9 2 Este 5 Este 0 952.7 1.8 88
2020-01-15 10:00:00 1.8 2 Noroeste 6 Noroeste 0 951.8 1.4 99
2020-01-15 09:00:00 0.4 4 Noroeste 6 Norte 0 951.3 1.1 98
2020-01-15 08:00:00 0.4 0 Calma 5 Nordeste 0 950.9 0.6 95
2020-01-15 07:00:00 0.9 2 Sudeste 7 Este 0 950.4 -0.1 94
2020-01-15 06:00:00 1.4 2 Este 5 Sudeste 0 950.2 -0.3 91
2020-01-15 05:00:00 2.5 2 Sudeste 4 Sudeste 0 950.3 -0.1 89
2020-01-15 04:00:00 3.7 3 Sudeste 4 Sudeste 0 950.5 -0.1 86
2020-01-15 03:00:00 4.6 4 Sudeste 7 Sudeste 0 950.5 -0.1 84
2020-01-15 02:00:00 4.7 2 Este 5 Sudoeste 0 950.4 0 84
2020-01-15 01:00:00 5 4 Sur 8 Sur 0 950.6 0.5 84
2020-01-15 00:00:00 5 3 Sudoeste 6 Oeste 0 950.6 0.5 83
2020-01-14 23:00:00 5.9 3 Sudoeste 11 Sudoeste 0 950.4 0.6 78
2020-01-14 22:00:00 5.7 3 Sur 9 Sudoeste 0 950.1 0.5 81
2020-01-14 21:00:00 5.9 0 Calma 11 Sudoeste 0 950.1 1 76
2020-01-14 20:00:00 7.5 5 Sudoeste 12 Sudoeste 0 949.8 0.7 72
2020-01-14 19:00:00 8.4 4 Sudoeste 10 Oeste 0 949.6 0.8 68
2020-01-14 18:00:00 9.5 4 Sudoeste 14 Oeste 0 949.1 0.1 63
2020-01-14 17:00:00 10.3 6 Oeste 17 Oeste 0 949.1 -0.5 59
2020-01-14 16:00:00 10.7 8 Noroeste 18 Noroeste 0 948.8 -1.6 59
2020-01-14 15:00:00 11.2 10 Oeste 20 Oeste 0 949 -1.9 57
2020-01-14 14:00:00 10.8 11 Oeste 20 Oeste 0 949.6 -1.3 59
2020-01-14 13:00:00 8.7 6 Oeste 14 Oeste 0 950.4 0 70
2020-01-14 12:00:00 4.9 4 Noroeste 9 Noroeste 0 950.9 0.7 77
2020-01-14 11:00:00 1.8 3 Este 5 Este 0 950.9 0.8 91
2020-01-14 10:00:00 -1.3 0 Calma 5 Este 0 950.4 0.7 96
2020-01-14 09:00:00 -2.4 2 Este 6 Sudeste 0 950.2 0.7 95
2020-01-14 08:00:00 -2.2 3 Este 8 Sur 0 950.1 0.3 94
2020-01-14 07:00:00 -1.6 3 Sudeste 7 Sur 0 949.7 -0.4 95
2020-01-14 06:00:00 -1.9 5 Sudeste 7 Sur 0 949.5 -0.7 95
2020-01-14 05:00:00 -1.7 0 Calma 3 Norte 0 949.8 -0.6 93
2020-01-14 04:00:00 -1.2 3 Norte 5 Norte 0 950.1 -0.8 93
2020-01-14 03:00:00 -0.9 0 Calma 3 Sudeste 0 950.2 -0.9 90
2020-01-14 02:00:00 -0.1 3 Sudeste 5 Sudeste 0 950.4 -0.4 88
2020-01-14 01:00:00 0.8 2 Sudeste 5 Sudoeste 0 950.9 -0.1 87
2020-01-14 00:00:00 1.9 3 Sudoeste 7 Sudoeste 0 951.1 -0.1 81
2020-01-13 23:00:00 3.3 4 Sudoeste 8 Oeste 0 950.8 -0.2 80
2020-01-13 22:00:00 4.9 3 Oeste 7 Oeste 0 951 0.1 73
2020-01-13 21:00:00 6.4 3 Oeste 10 Sudoeste 0 951.2 0.3 67
2020-01-13 20:00:00 7.3 5 Sudoeste 11 Sudoeste 0 951 0.1 64
2020-01-13 19:00:00 8.2 6 Sudoeste 12 Sudoeste 0 950.9 -0.2 61
2020-01-13 18:00:00 9.8 5 Oeste 15 Oeste 0 950.9 -0.2 54
2020-01-13 17:00:00 11.1 6 Oeste 21 Oeste 0 950.9 -1 50
2020-01-13 16:00:00 11.6 9 Noroeste 26 Noroeste 0 951.1 -1.9 44
2020-01-13 15:00:00 12.2 9 Oeste 18 Oeste 0 951.1 -2.7 47
2020-01-13 14:00:00 10.9 3 Sudoeste 10 Sudoeste 0 951.9 -2.3 55
2020-01-13 13:00:00 8.2 3 Oeste 7 Sur 0 953 -0.7 61
2020-01-13 12:00:00 4.4 0 Calma 5 Este 0 953.8 0.3 75
2020-01-13 11:00:00 1.6 4 Este 6 Nordeste 0 954.2 0.7 88
2020-01-13 10:00:00 -1.2 0 Calma 3 Norte 0 953.7 0.3 97
2020-01-13 09:00:00 -2 0 Calma 3 Norte 0 953.5 0.2 99
2020-01-13 08:00:00 -2.6 2 Este 3 Nordeste 0 953.5 0 96
2020-01-13 07:00:00 -2.6 2 Norte 3 Noroeste 0 953.4 -0.9 95
2020-01-13 06:00:00 -2.3 3 Sudeste 7 Sur 0 953.3 -1 93
2020-01-13 05:00:00 -1.8 2 Este 4 Este 0 953.5 -1.1 94
2020-01-13 04:00:00 -1.4 3 Sudeste 6 Sudeste 0 954.3 -1.2 93
2020-01-13 03:00:00 -1.1 0 Calma 5 Noroeste 0 954.3 -1.6 90
2020-01-13 02:00:00 -0.1 4 Noroeste 6 Noroeste 0 954.6 -1.1 91
2020-01-13 01:00:00 0.5 4 Este 6 Noroeste 0 955.5 -0.3 87
2020-01-13 00:00:00 1.3 5 Noroeste 6 Norte 0 955.9 0.3 84
2020-01-12 23:00:00 1.8 5 Este 9 Nordeste 0 955.7 0.2 82
2020-01-12 22:00:00 2.8 3 Norte 5 Norte 0 955.8 0.6 82
2020-01-12 21:00:00 4.1 2 Nordeste 4 Sudeste 0 955.6 0.9 76
2020-01-12 20:00:00 5.8 0 Calma 5 Sur 0 955.5 0.7 71
2020-01-12 19:00:00 7.7 3 Sur 7 Sudoeste 0 955.2 0.3 63
2020-01-12 18:00:00 9.9 4 Sudoeste 9 Sur 0 954.7 -0.6 55
2020-01-12 17:00:00 11.4 3 Oeste 9 Oeste 0 954.8 -1.2 51
2020-01-12 16:00:00 11.8 3 Oeste 11 Noroeste 0 954.9 -2 43
2020-01-12 15:00:00 12.4 4 Oeste 11 Noroeste 0 955.3 -2.5 47
2020-01-12 14:00:00 11.9 3 Sur 8 Sudeste 0 956 -2.1 52
2020-01-12 13:00:00 9.6 4 Sudeste 7 Sudeste 0 956.9 -0.8 58
2020-01-12 12:00:00 5.8 2 Sudeste 5 Nordeste 0 957.8 0.6 77
2020-01-12 11:00:00 2.5 2 Este 3 Noroeste 0 958.1 1 90
2020-01-12 10:00:00 -0.1 4 Sur 7 Sur 0 957.7 0.7 99
2020-01-12 09:00:00 -2.6 4 Sur 5 Sudeste 0 957.2 0.5 96
2020-01-12 08:00:00 -2.4 0 Calma 5 Sudeste 0 957.1 0.2 96
2020-01-12 07:00:00 -2.2 2 Sudeste 5 Sur 0 957 -0.1 96
2020-01-12 06:00:00 -2 3 Sudeste 4 Este 0 956.7 -0.2 95
2020-01-12 05:00:00 -1.7 0 Calma 3 Sudeste 0 956.9 -0.1 94
2020-01-12 04:00:00 -1.2 0 Calma 4 Sur 0 957.1 0 94
2020-01-12 03:00:00 -0.8 3 Sudeste 4 Noroeste 0 956.9 -0.3 93
2020-01-12 02:00:00 -0.4 3 Noroeste 5 Noroeste 0 957 -0.2 92
2020-01-12 01:00:00 0.2 -- -- -- -- 0 957.1 -0.1 90
2020-01-12 00:00:00 1.1 0 Calma 4 Sudeste 0 957.2 0.3 89
2020-01-11 23:00:00 1.8 2 Sudeste 3 Sudeste 0 957.2 0.5 86
2020-01-11 22:00:00 2.8 -- -- -- -- 0 957.2 0.8 84
2020-01-11 21:00:00 3.8 2 Nordeste 4 Nordeste 0 956.9 1 80
2020-01-11 20:00:00 5.2 3 Norte 4 Noroeste 0 956.7 0.8 75
2020-01-11 19:00:00 7 3 Sur 5 Este 0 956.4 0.6 67
2020-01-11 18:00:00 9.1 5 Este 10 Nordeste 0 955.9 -0.1 59
2020-01-11 17:00:00 10.2 6 Este 14 Este 0 955.9 -0.5 54
2020-01-11 16:00:00 10.6 9 Este 17 Nordeste 0 955.8 -1.7 53
2020-01-11 15:00:00 10.5 10 Nordeste 17 Este 0 956 -2.2 54
2020-01-11 14:00:00 9.6 9 Nordeste 15 Este 0 956.4 -1.6 61
2020-01-11 13:00:00 7.7 8 Este 14 Nordeste 0 957.5 -0.1 64
2020-01-11 12:00:00 6.6 6 Este 12 Sudeste 0 958.2 1.2 68
2020-01-11 11:00:00 3.6 6 Sudeste 11 Este 0 958 1.2 80
2020-01-11 10:00:00 0 3 Este 5 Nordeste 0 957.6 1.3 92
2020-01-11 09:00:00 -1.2 3 Sudeste 5 Sur 0 957 0.9 93
2020-01-11 08:00:00 -0.8 4 Sudeste 8 Sudeste 0 956.8 0.6 92
2020-01-11 07:00:00 -0.6 5 Sudeste 7 Sudeste 0 956.3 -0.1 92
2020-01-11 06:00:00 -0.6 2 Este 5 Nordeste 0 956.1 0 91
2020-01-11 05:00:00 -0.1 2 Este 5 Este 0 956.2 0.3 89
2020-01-11 04:00:00 0.4 3 Este 5 Este 0 956.4 0.5 87
2020-01-11 03:00:00 1.1 0 Calma 6 Nordeste 0 956.1 0.2 84
2020-01-11 02:00:00 2.1 3 Nordeste 11 Sudeste 0 955.9 0.3 80
2020-01-11 01:00:00 3.3 4 Este 14 Sudeste 0 955.9 0.5 75
2020-01-11 00:00:00 4.7 6 Nordeste 18 Nordeste 0 955.9 0.9 69
2020-01-10 23:00:00 4.8 5 Norte 15 Nordeste 0 955.6 1 69
2020-01-10 22:00:00 5.8 6 Norte 18 Norte 0 955.4 1.4 65
2020-01-10 21:00:00 6.6 8 Norte 19 Norte 0 955 1.4 62
2020-01-10 20:00:00 6.7 6 Norte 15 Norte 0 954.6 1.6 62
2020-01-10 19:00:00 7.3 5 Nordeste 16 Norte 0 954 1.2 60
2020-01-10 18:00:00 9.1 7 Norte 29 Nordeste 0 953.6 0.9 55
2020-01-10 17:00:00 10.1 13 Nordeste 31 Norte 0 953 -0.4 49
2020-01-10 16:00:00 10.8 12 Nordeste 37 Norte 0 952.8 -0.9 47
2020-01-10 15:00:00 11.2 18 Nordeste 35 Nordeste 0 952.7 -1.3 48
2020-01-10 14:00:00 11 11 Norte 30 Noroeste 0 953.4 -0.7 50
2020-01-10 13:00:00 10.7 9 Norte 37 Nordeste 0 953.7 -0.1 54
2020-01-10 12:00:00 9.1 14 Norte 30 Nordeste 0 954 0.9 62
2020-01-10 11:00:00 7.8 9 Nordeste 24 Norte 0 954.1 1.6 66
2020-01-10 10:00:00 6.4 6 Norte 15 Nordeste 0 953.8 1.9 74
2020-01-10 09:00:00 5.8 5 Norte 15 Norte 0 953.1 1.4 78
2020-01-10 08:00:00 5.1 5 Norte 13 Norte 0 952.5 0.6 91
2020-01-10 07:00:00 4.6 0 Calma 5 Este 0 951.9 -0.2 94
2020-01-10 06:00:00 5.1 0 Calma 3 Nordeste 0 951.7 -0.2 92
2020-01-10 05:00:00 5.9 3 Noroeste 9 Oeste 0 951.9 0.1 95
2020-01-10 04:00:00 5.2 0 Calma 10 Oeste 0 952.1 0 91
2020-01-10 03:00:00 5.7 7 Sudoeste 13 Sudoeste 0 951.9 -0.4 92
2020-01-10 02:00:00 5.3 4 Oeste 9 Oeste 0 951.8 -0.9 93
2020-01-10 01:00:00 5.7 3 Noroeste 14 Sudoeste 0 952.1 -0.8 90
2020-01-10 00:00:00 6.1 7 Oeste 12 Oeste 0 952.3 -0.3 89
2020-01-09 23:00:00 6.4 6 Sudoeste 12 Oeste 0 952.7 0.4 89
2020-01-09 22:00:00 6.9 3 Oeste 15 Noroeste 0 952.9 0.7 83
2020-01-09 21:00:00 7.8 5 Oeste 15 Oeste 0 952.6 0.4 75
2020-01-09 20:00:00 8.7 8 Oeste 15 Oeste 0 952.3 0.7 71
2020-01-09 19:00:00 9.5 6 Sudoeste 11 Sudoeste 0 952.2 0.2 74
2020-01-09 18:00:00 11 5 Oeste 15 Sudoeste 0 952.2 -0.2 70
2020-01-09 17:00:00 11.8 5 Sudoeste 13 Sudoeste 0 951.6 -1.3 66
2020-01-09 16:00:00 10.9 4 Oeste 13 Oeste 0 952 -1.8 72
2020-01-09 15:00:00 8.6 2 Noroeste 13 Norte 0 952.4 -2.3 81
2020-01-09 14:00:00 7.6 3 Sudeste 11 Este 0 952.9 -1.6 82
2020-01-09 13:00:00 4.8 6 Este 9 Este 0 953.8 -0.1 96
2020-01-09 12:00:00 3.5 3 Este 6 Nordeste 0 954.7 0.9 100
2020-01-09 11:00:00 2.3 3 Este 6 Este 0 954.5 0.9 100
2020-01-09 10:00:00 1.6 2 Este 6 Este 0 953.9 0.3 100
2020-01-09 09:00:00 1.5 0 Calma 8 Este 0 953.8 0.3 100
2020-01-09 08:00:00 1.5 3 Este 9 Nordeste 0 953.6 -0.3 100
2020-01-09 07:00:00 1.1 3 Nordeste 6 Este 0 953.6 -0.5 100
2020-01-09 06:00:00 1.2 2 Nordeste 7 Este 0 953.5 -0.6 99
2020-01-09 05:00:00 1.7 4 Este 9 Este 0 953.9 -0.3 99
2020-01-09 04:00:00 2.3 5 Este 9 Este 0 954.1 -0.3 98
2020-01-09 03:00:00 2.6 4 Este 6 Sudeste 0 954.1 -0.7 95
2020-01-09 02:00:00 3.5 0 Calma 6 Este 0 954.2 -0.4 95
2020-01-09 01:00:00 4.3 5 Este 12 Este 0 954.4 -0.3 96
2020-01-09 00:00:00 4.2 4 Este 8 Sudeste 0 954.8 0.2 92
2020-01-08 23:00:00 4.4 3 Nordeste 8 Nordeste 0 954.6 0 86
2020-01-08 22:00:00 5.1 3 Nordeste 6 Nordeste 0 954.7 0.3 84
2020-01-08 21:00:00 6.1 3 Norte 7 Nordeste 0 954.6 0.5 81
2020-01-08 20:00:00 7.5 3 Nordeste 5 Nordeste 0 954.6 0.6 77
2020-01-08 19:00:00 9.2 2 Nordeste 6 Nordeste 0 954.4 0.4 71
2020-01-08 18:00:00 11.4 4 Nordeste 9 Nordeste 0 954.1 -0.1 62
2020-01-08 17:00:00 12.9 6 Este 10 Este 0 954 -0.8 52
2020-01-08 16:00:00 13.8 4 Nordeste 11 Este 0 954 -1.3 45
2020-01-08 15:00:00 14.5 6 Sudeste 13 Este 0 954.2 -1.9 44
2020-01-08 14:00:00 12.3 7 Este 12 Este 0 954.8 -1.8 57
2020-01-08 13:00:00 10.1 2 Nordeste 6 Noroeste 0 955.3 -1.1 63
2020-01-08 12:00:00 7.8 3 Oeste 6 Oeste 0 956.1 0.5 71
2020-01-08 11:00:00 3.1 2 Este 5 Este 0 956.6 1.1 91
2020-01-08 10:00:00 -0.3 0 Calma 3 Sudeste 0 956.4 0.8 98
2020-01-08 09:00:00 -1.4 2 Sudeste 3 Este 0 955.6 -0.1 97
2020-01-08 08:00:00 -1.3 0 Calma -- -- 0 955.5 -0.3 97
2020-01-08 07:00:00 -1.4 3 Noroeste 4 Noroeste 0 955.6 -0.4 96
2020-01-08 06:00:00 -1 3 Noroeste 8 Noroeste 0 955.7 -0.3 96
2020-01-08 05:00:00 -0.6 3 Noroeste 4 Noroeste 0 955.8 -0.2 96
2020-01-08 04:00:00 -0.3 0 Calma 4 Nordeste 0 956 -0.2 95
2020-01-08 03:00:00 0.3 3 Sudeste 5 Sudeste 0 956 -0.5 95
2020-01-08 02:00:00 0.8 3 Sudeste 4 Noroeste 0 956 -0.6 94
2020-01-08 01:00:00 1.4 4 Noroeste 5 Noroeste 0 956.2 -0.4 92
2020-01-08 00:00:00 2.2 3 Sudeste 4 Sudeste 0 956.5 0 90
2020-01-07 23:00:00 3 0 Calma 5 Sudeste 0 956.6 0.1 89
2020-01-07 22:00:00 3.9 2 Sudeste 3 Sudeste 0 956.6 0.3 87
2020-01-07 21:00:00 5 4 Oeste 7 Oeste 0 956.5 0.3 83
2020-01-07 20:00:00 6.3 2 Sudoeste 3 Sudoeste 0 956.5 0.3 76
2020-01-07 19:00:00 8.2 0 Calma 3 Sudeste 0 956.3 0.1 67
2020-01-07 18:00:00 10.6 3 Sur 6 Sur 0 956.2 -0.2 60
2020-01-07 17:00:00 12.9 5 Sudeste 7 Sudeste 0 956.2 -0.8 48
2020-01-07 16:00:00 13.1 2 Sur 5 Nordeste 0 956.2 -1.7 52
2020-01-07 15:00:00 12.7 2 Este 7 Oeste 0 956.4 -2.2 52
2020-01-07 14:00:00 12.2 3 Oeste 8 Este 0 957 -1.6 58
2020-01-07 13:00:00 9 4 Este 7 Sudeste 0 957.9 -0.4 73
2020-01-07 12:00:00 5 2 Nordeste 7 Este 0 958.6 0.9 88
2020-01-07 11:00:00 1.8 2 Este 4 Norte 0 958.6 1.1 97
2020-01-07 10:00:00 -0.9 0 Calma 5 Sudeste 0 958.3 1.1 99
2020-01-07 09:00:00 -2.2 2 Nordeste 4 Nordeste 0 957.7 0.7 97
2020-01-07 08:00:00 -1.9 2 Este 3 Nordeste 0 957.5 0.3 96
2020-01-07 07:00:00 -1.3 0 Calma 7 Noroeste 0 957.2 -0.3 97
2020-01-07 06:00:00 -1 3 Norte 6 Noroeste 0 957 -0.3 97
2020-01-07 05:00:00 -0.3 2 Nordeste 3 Nordeste 0 957.2 0.2 98
2020-01-07 04:00:00 0.2 2 Sudeste 5 Este 0 957.5 0.6 97
2020-01-07 03:00:00 0.8 3 Este 5 Este 0 957.3 0.5 98
2020-01-07 02:00:00 1.1 3 Sudeste 6 Norte 0 957 0.3 96
2020-01-07 01:00:00 1.9 2 Nordeste 6 Sur 0 956.9 0.6 97
2020-01-07 00:00:00 2.4 2 Sur 6 Sudeste 0 956.8 0.9 95
2020-01-06 23:00:00 3.2 0 Calma 5 Norte 0 956.7 1.1 92
2020-01-06 22:00:00 4.2 3 Oeste 9 Noroeste 0 956.3 1.4 92
2020-01-06 21:00:00 4.8 0 Calma 5 Norte 0 955.9 1.3 91
2020-01-06 20:00:00 6.1 3 Nordeste 5 Nordeste 0 955.6 1.2 86
2020-01-06 19:00:00 7.7 4 Sudeste 5 Este 0 954.9 0.7 80
2020-01-06 18:00:00 9.8 3 Sudeste 5 Nordeste 0 954.6 0.4 71
2020-01-06 17:00:00 11.6 4 Nordeste 6 Este 0 954.4 -0.3 63
2020-01-06 16:00:00 12.3 2 Noroeste 6 Sur 0 954.2 -1.6 57
2020-01-06 15:00:00 12.4 2 Sudeste 8 Sur 0 954.2 -1.9 58
2020-01-06 14:00:00 11.1 5 Sudeste 9 Sur 0 954.7 -1.4 64
2020-01-06 13:00:00 6.7 0 Calma 9 Este 0 955.8 0 82
2020-01-06 12:00:00 5.2 3 Este 10 Este 0 956.1 0.7 86
2020-01-06 11:00:00 1.2 2 Este 4 Este 0 956.1 1.3 100
2020-01-06 10:00:00 -1 0 Calma 5 Noroeste 0 955.8 1.3 99